Time;durP1;ratioP1;P1;durP2;ratioP2;P2;SDS_P1;SDS_P2;PMS_P1;PMS_P2;Temp;Humidity;BMP_temperature;BMP_pressure;BME280_temperature;BME280_humidity;BME280_pressure;Samples;Min_cycle;Max_cycle;Signal;HPM_P1;HPM_P2
2022/09/23 00:00:20;;;;;;;;;11.50;10.50;;;;;15.44;99.99;101498.38;5055176;28;60241;-70
2022/09/23 00:02:47;;;;;;;;;12.75;11.75;;;;;15.42;100.00;101501.03;5055772;28;57887;-71
2022/09/23 00:05:13;;;;;;;;;11.50;10.00;;;;;15.43;100.00;101496.59;5056479;28;45446;-68
2022/09/23 00:07:38;;;;;;;;;14.00;12.00;;;;;15.43;100.00;101496.59;5037623;28;46579;-72
2022/09/23 00:10:05;;;;;;;;;13.50;10.50;;;;;15.42;100.00;101494.81;5051667;28;61174;-69
2022/09/23 00:12:30;;;;;;;;;11.25;9.50;;;;;15.40;100.00;101492.19;5055596;28;45564;-69
2022/09/23 00:14:55;;;;;;;;;11.25;11.00;;;;;15.38;100.00;101482.41;5055859;28;45343;-68
2022/09/23 00:17:22;;;;;;;;;11.75;9.00;;;;;15.38;100.00;101487.72;5037133;28;60902;-69
2022/09/23 00:19:48;;;;;;;;;14.00;11.00;;;;;15.35;100.00;101488.63;5054461;28;45284;-71
2022/09/23 00:22:13;;;;;;;;;15.00;12.25;;;;;15.31;100.00;101480.63;5056442;28;45321;-69
2022/09/23 00:24:39;;;;;;;;;12.75;11.00;;;;;15.28;100.00;101475.28;5035896;28;45455;-69
2022/09/23 00:27:04;;;;;;;;;11.25;10.50;;;;;15.28;100.00;101483.25;5056400;28;46329;-69
2022/09/23 00:29:30;;;;;;;;;12.50;10.75;;;;;15.23;100.00;101471.72;5051641;28;45608;-68
2022/09/23 00:31:55;;;;;;;;;14.50;10.50;;;;;15.22;100.00;101472.63;5053989;28;45462;-72
2022/09/23 00:34:21;;;;;;;;;11.00;9.50;;;;;15.18;100.00;101469.97;5054730;28;54117;-72
2022/09/23 00:36:46;;;;;;;;;15.75;11.50;;;;;15.16;100.00;101474.38;5055053;28;63981;-69
2022/09/23 00:39:12;;;;;;;;;11.00;11.00;;;;;15.12;100.00;101471.69;5036714;28;66715;-69
2022/09/23 00:41:38;;;;;;;;;10.50;10.00;;;;;15.07;100.00;101477.00;5055442;28;45332;-69
2022/09/23 00:44:41;;;;;;;;;11.25;8.25;;;;;15.07;100.00;101477.00;5055710;28;45687;-69
2022/09/23 00:47:32;;;;;;;;;14.75;10.00;;;;;15.05;100.00;101476.13;5046030;28;45903;-69
2022/09/23 00:50:05;;;;;;;;;9.67;9.67;;;;;15.03;100.00;101475.25;5030270;28;45344;-69
2022/09/23 00:52:31;;;;;;;;;12.25;10.00;;;;;15.00;100.00;101475.22;5055348;28;45956;-71
2022/09/23 00:54:57;;;;;;;;;11.75;10.00;;;;;14.96;100.00;101468.09;5037328;28;45262;-69
2022/09/23 00:57:24;;;;;;;;;9.50;9.50;;;;;14.97;100.00;101469.00;5052782;28;47109;-67
2022/09/23 00:59:49;;;;;;;;;13.00;12.25;;;;;14.93;100.00;101462.78;5036722;28;45175;-69
2022/09/23 01:02:16;;;;;;;;;11.50;11.50;;;;;14.90;100.00;101460.09;5052285;28;63354;-69
2022/09/23 01:04:42;;;;;;;;;13.00;10.25;;;;;14.91;100.00;101473.44;5055522;28;45513;-69
2022/09/23 01:07:07;;;;;;;;;15.00;11.00;;;;;14.89;100.00;101476.94;5055534;28;46536;-68
2022/09/23 01:09:32;;;;;;;;;14.00;10.33;;;;;14.86;100.00;101463.63;5052671;28;59296;-69
2022/09/23 01:12:17;;;;;;;;;13.00;9.33;;;;;14.86;100.00;101467.22;5048453;28;59659;-69
2022/09/23 01:14:55;;;;;;;;;10.00;10.00;;;;;14.84;100.00;101460.09;5055380;28;45351;-69
2022/09/23 01:17:32;;;;;;;;;10.67;10.67;;;;;14.79;100.00;101454.75;5037109;28;46714;-71
2022/09/23 01:20:35;;;;;;;;;10.25;10.25;;;;;14.79;100.00;101454.75;5039669;28;45575;-69
2022/09/23 01:23:00;;;;;;;;;16.25;12.75;;;;;14.78;100.00;101447.66;5058398;28;45240;-70
2022/09/23 01:26:03;;;;;;;;;14.67;9.67;;;;;14.76;100.00;101449.44;5056651;28;45483;-68
2022/09/23 01:28:54;;;;;;;;;14.00;13.00;;;;;14.73;100.00;101432.59;5058701;28;45987;-69
2022/09/23 01:31:22;;;;;;;;;14.75;12.00;;;;;14.73;100.00;101436.13;5036807;28;45264;-68
2022/09/23 01:34:29;;;;;;;;;14.00;11.00;;;;;14.74;100.00;101439.69;5037891;28;45317;-69
2022/09/23 01:37:05;;;;;;;;;14.75;10.75;;;;;14.68;100.00;101425.47;5034729;28;45563;-69
2022/09/23 01:39:37;;;;;;;;;13.00;8.75;;;;;14.70;100.00;101438.78;5020149;28;46771;-69
2022/09/23 01:42:38;;;;;;;;;10.67;10.00;;;;;14.71;100.00;101439.69;5035585;28;45525;-69
2022/09/23 01:45:13;;;;;;;;;12.00;12.00;;;;;14.70;100.00;101438.78;5034695;28;45313;-72
2022/09/23 01:47:42;;;;;;;;;14.25;10.75;;;;;14.70;100.00;101446.78;5038401;28;45570;-72
2022/09/23 01:53:11;;;;;;;;;13.75;13.00;;;;;14.71;100.00;101450.31;5034796;28;45507;-69
2022/09/23 01:55:40;;;;;;;;;13.25;13.00;;;;;14.71;100.00;101442.34;5020156;28;45504;-68
2022/09/23 01:58:33;;;;;;;;;12.75;12.75;;;;;14.68;100.00;101437.88;5016600;28;45646;-69
2022/09/23 02:01:00;;;;;;;;;12.25;10.00;;;;;14.71;100.00;101439.69;5026879;28;45563;-71
2022/09/23 02:03:42;;;;;;;;;16.75;12.75;;;;;14.72;100.00;101438.78;5019619;28;45555;-71
2022/09/23 02:06:16;;;;;;;;;16.75;14.50;;;;;14.75;100.00;101444.97;5037830;28;45462;-69
2022/09/23 02:08:46;;;;;;;;;16.75;11.75;;;;;14.72;100.00;101430.81;5026017;28;45305;-69
2022/09/23 02:11:14;;;;;;;;;13.50;11.25;;;;;14.75;100.00;101434.34;5019762;28;45958;-70
2022/09/23 02:14:06;;;;;;;;;17.00;11.00;;;;;14.75;100.00;101438.78;5037309;28;45450;-69
2022/09/23 02:16:46;;;;;;;;;12.50;12.25;;;;;14.72;100.00;101430.81;5033327;28;45391;-70
2022/09/23 02:19:24;;;;;;;;;17.25;14.50;;;;;14.74;100.00;101432.59;5036702;28;45587;-69
2022/09/23 02:21:59;;;;;;;;;14.00;9.50;;;;;14.72;100.00;101423.72;5019839;28;46236;-69
2022/09/23 02:24:30;;;;;;;;;17.50;14.00;;;;;14.73;100.00;101428.16;5035536;28;45412;-70
2022/09/23 02:27:02;;;;;;;;;11.50;11.50;;;;;14.73;100.00;101436.13;5036146;28;45457;-68
2022/09/23 02:29:33;;;;;;;;;14.25;11.00;;;;;14.73;100.00;101436.13;5038965;28;45593;-69
2022/09/23 02:32:03;;;;;;;;;10.50;8.75;;;;;14.74;100.00;101429.03;5054229;28;45906;-69
2022/09/23 02:34:44;;;;;;;;;13.50;10.50;;;;;14.73;100.00;101424.63;5052518;28;45124;-69
2022/09/23 02:37:41;;;;;;;;;16.50;13.75;;;;;14.74;100.00;101421.06;5039152;28;45703;-72
2022/09/23 02:40:22;;;;;;;;;14.75;10.75;;;;;14.75;100.00;101420.19;5057394;28;45373;-71
2022/09/23 02:42:47;;;;;;;;;16.25;13.00;;;;;14.75;100.00;101422.84;5056134;28;45636;-69
2022/09/23 02:45:13;;;;;;;;;16.25;12.25;;;;;14.75;100.00;101415.75;5057027;28;45347;-69
2022/09/23 02:47:41;;;;;;;;;14.00;11.50;;;;;14.76;100.00;101416.66;5037714;28;45389;-69
2022/09/23 02:50:08;;;;;;;;;19.50;15.50;;;;;14.75;100.00;101410.44;5039282;28;45664;-70
2022/09/23 02:52:35;;;;;;;;;16.25;13.00;;;;;14.73;100.00;101406.00;5053239;28;45975;-71
2022/09/23 02:55:01;;;;;;;;;16.75;14.50;;;;;14.76;100.00;101408.69;5057597;28;45266;-69
2022/09/23 02:57:26;;;;;;;;;13.75;13.00;;;;;14.75;100.00;101406.88;5038834;28;45475;-69
2022/09/23 02:59:52;;;;;;;;;12.00;12.00;;;;;14.75;100.00;101407.78;5055059;28;59213;-69
2022/09/23 03:02:38;;;;;;;;;14.25;13.25;;;;;14.77;100.00;101405.13;5056837;28;46674;-69
2022/09/23 03:05:12;;;;;;;;;13.25;13.25;;;;;14.76;100.00;101400.72;5057462;28;45424;-69
2022/09/23 03:07:50;;;;;;;;;13.00;13.00;;;;;14.74;100.00;101405.13;5056741;28;45597;-68
2022/09/23 03:10:25;;;;;;;;;17.00;12.00;;;;;14.72;100.00;101396.25;5057323;28;45817;-69
2022/09/23 03:13:04;;;;;;;;;15.50;13.25;;;;;14.75;100.00;101398.91;5054680;28;47033;-68
2022/09/23 03:15:56;;;;;;;;;16.75;12.75;;;;;14.73;100.00;101400.69;5056825;28;45544;-72
2022/09/23 03:18:41;;;;;;;;;17.75;12.50;;;;;14.71;100.00;101400.69;5055982;28;45567;-71
2022/09/23 03:21:28;;;;;;;;;12.50;12.50;;;;;14.74;100.00;101406.00;5053054;28;45399;-69
2022/09/23 03:23:56;;;;;;;;;12.00;12.00;;;;;14.71;100.00;101398.03;5037883;28;46832;-68
2022/09/23 03:26:26;;;;;;;;;12.25;12.25;;;;;14.72;100.00;101402.47;5038312;28;45500;-68
2022/09/23 03:28:52;;;;;;;;;18.00;15.75;;;;;14.75;100.00;101404.22;5038634;28;45248;-72
2022/09/23 03:31:17;;;;;;;;;15.50;11.25;;;;;14.75;100.00;101407.78;5034567;28;46666;-68
2022/09/23 03:33:49;;;;;;;;;14.75;13.50;;;;;14.75;100.00;101405.09;5035520;28;64869;-72
2022/09/23 03:39:05;;;;;;;;;15.75;13.00;;;;;14.76;100.00;101408.69;5049594;28;45537;-69
2022/09/23 03:41:38;;;;;;;;;8.50;8.50;;;;;14.77;100.00;101405.13;5035859;28;45476;-69
2022/09/23 03:44:03;;;;;;;;;14.00;12.50;;;;;14.75;100.00;101410.44;5032954;28;46457;-72
2022/09/23 03:46:29;;;;;;;;;12.50;11.50;;;;;14.74;100.00;101406.00;5032475;28;45426;-69
2022/09/23 03:49:01;;;;;;;;;15.50;9.00;;;;;14.76;100.00;101416.66;5035236;28;45407;-69
2022/09/23 03:51:26;;;;;;;;;15.00;13.25;;;;;14.74;100.00;101408.66;5050051;28;45345;-68
2022/09/23 03:53:52;;;;;;;;;12.50;10.50;;;;;14.74;100.00;101413.97;5035481;28;64513;-69
2022/09/23 03:56:17;;;;;;;;;14.75;12.00;;;;;14.74;100.00;101410.44;5035245;28;67700;-69
2022/09/23 03:58:45;;;;;;;;;13.50;11.25;;;;;14.71;100.00;101408.66;5035871;28;46600;-72
2022/09/23 04:01:10;;;;;;;;;15.50;11.00;;;;;14.71;100.00;101410.44;5036323;28;45602;-69
2022/09/23 04:03:36;;;;;;;;;13.00;13.00;;;;;14.73;100.00;101413.97;5034552;28;45613;-72
2022/09/23 04:06:01;;;;;;;;;11.50;10.25;;;;;14.72;100.00;101414.88;5035219;28;68192;-69
2022/09/23 04:08:26;;;;;;;;;6.50;6.00;;;;;14.67;100.00;101405.09;5035213;28;63045;-69
2022/09/23 04:10:52;;;;;;;;;14.25;13.00;;;;;14.68;100.00;101408.66;5036148;28;45436;-71
2022/09/23 04:13:17;;;;;;;;;16.75;13.25;;;;;14.69;100.00;101418.38;5035318;28;71004;-71
2022/09/23 04:15:42;;;;;;;;;15.00;13.00;;;;;14.65;100.00;101413.97;5035037;28;61871;-69
2022/09/23 04:18:07;;;;;;;;;12.75;11.25;;;;;14.64;100.00;101399.75;5035921;28;45438;-70
2022/09/23 04:20:33;;;;;;;;;6.00;5.75;;;;;14.64;100.00;101406.84;5035213;28;61270;-69
2022/09/23 04:22:58;;;;;;;;;12.75;10.25;;;;;14.62;100.00;101404.19;5035860;28;46602;-68
2022/09/23 04:25:24;;;;;;;;;11.25;11.25;;;;;14.63;100.00;101408.63;5034442;28;45537;-71
2022/09/23 04:27:49;;;;;;;;;13.75;10.50;;;;;14.62;100.00;101406.84;5033272;28;55789;-69
2022/09/23 04:30:14;;;;;;;;;13.00;10.00;;;;;14.58;100.00;101405.06;5043757;28;55664;-68
2022/09/23 04:32:40;;;;;;;;;13.00;10.25;;;;;14.60;100.00;101405.09;5036756;28;64970;-70
2022/09/23 04:35:06;;;;;;;;;13.25;12.00;;;;;14.57;100.00;101405.06;5054670;28;63009;-69
2022/09/23 04:37:31;;;;;;;;;15.75;11.50;;;;;14.53;100.00;101393.53;5055808;28;45367;-68
2022/09/23 04:39:57;;;;;;;;;19.75;14.00;;;;;14.52;100.00;101399.72;5052416;28;62639;-69
2022/09/23 04:42:22;;;;;;;;;11.75;11.25;;;;;14.54;100.00;101403.28;5054912;28;66982;-72
2022/09/23 04:44:47;;;;;;;;;13.75;12.25;;;;;14.49;100.00;101394.41;5054811;28;49520;-69
2022/09/23 04:47:13;;;;;;;;;14.50;14.50;;;;;14.48;100.00;101389.06;5054446;28;59538;-70
2022/09/23 04:49:38;;;;;;;;;16.50;12.50;;;;;14.48;100.00;101395.28;5055837;28;45395;-69
2022/09/23 04:52:04;;;;;;;;;18.00;13.00;;;;;14.46;100.00;101397.00;5053662;28;65448;-69
2022/09/23 04:54:30;;;;;;;;;16.25;12.75;;;;;14.44;100.00;101393.47;5038893;28;46290;-70
2022/09/23 04:56:55;;;;;;;;;15.25;13.50;;;;;14.41;100.00;101390.78;5040801;28;45470;-69
2022/09/23 04:59:20;;;;;;;;;16.50;14.00;;;;;14.44;100.00;101392.59;5059065;28;45573;-68
2022/09/23 05:01:46;;;;;;;;;18.00;11.00;;;;;14.42;100.00;101390.78;5054334;28;62522;-69
2022/09/23 05:04:12;;;;;;;;;14.00;12.00;;;;;14.38;100.00;101378.41;5057595;28;65795;-69
2022/09/23 05:06:38;;;;;;;;;15.50;14.25;;;;;14.38;100.00;101382.78;5058604;28;45676;-69
2022/09/23 05:09:06;;;;;;;;;11.75;11.75;;;;;14.37;100.00;101394.31;5039556;28;45371;-68
2022/09/23 05:11:31;;;;;;;;;15.50;14.00;;;;;14.37;100.00;101386.34;5051950;28;46670;-68
2022/09/23 05:13:57;;;;;;;;;12.75;11.50;;;;;14.34;100.00;101387.22;5055729;28;45534;-70
2022/09/23 05:16:23;;;;;;;;;14.25;12.25;;;;;14.37;100.00;101389.00;5039076;28;45667;-71
2022/09/23 05:18:50;;;;;;;;;17.25;14.00;;;;;14.32;100.00;101370.38;5039776;28;45514;-68
2022/09/23 05:21:18;;;;;;;;;13.00;12.50;;;;;14.35;100.00;101377.50;5054142;28;46603;-71
2022/09/23 05:23:53;;;;;;;;;21.25;19.50;;;;;14.33;100.00;101373.94;5056319;28;45493;-68
2022/09/23 05:26:18;;;;;;;;;20.00;17.00;;;;;14.32;100.00;101366.84;5054163;28;45532;-68
2022/09/23 05:28:44;;;;;;;;;19.00;15.50;;;;;14.33;100.00;101373.94;5052115;28;45449;-70
2022/09/23 05:31:20;;;;;;;;;18.00;17.00;;;;;14.35;100.00;101372.19;5056167;28;45952;-69
2022/09/23 05:33:56;;;;;;;;;19.25;14.25;;;;;14.35;100.00;101372.19;5055451;28;45560;-69
2022/09/23 05:36:22;;;;;;;;;18.50;13.75;;;;;14.38;100.00;101380.13;5051561;28;45480;-68
2022/09/23 05:38:49;;;;;;;;;16.00;15.75;;;;;14.36;100.00;101374.81;5057153;28;47326;-68
2022/09/23 05:41:16;;;;;;;;;16.25;15.00;;;;;14.40;100.00;101378.41;5036208;28;46889;-69
2022/09/23 05:43:41;;;;;;;;;19.00;16.50;;;;;14.38;100.00;101378.41;5054531;28;45533;-68
2022/09/23 05:46:14;;;;;;;;;17.50;16.25;;;;;14.41;100.00;101382.81;5057478;28;45391;-68
2022/09/23 05:48:41;;;;;;;;;17.25;16.50;;;;;14.43;100.00;101386.34;5056906;28;45827;-68
2022/09/23 05:51:09;;;;;;;;;27.00;14.75;;;;;14.44;100.00;101377.53;5048453;28;45884;-67
2022/09/23 05:53:35;;;;;;;;;17.75;14.25;;;;;14.46;100.00;101377.53;5056144;28;45372;-69
2022/09/23 05:56:02;;;;;;;;;13.50;13.50;;;;;14.46;100.00;101381.06;5036617;28;47687;-68
2022/09/23 05:58:27;;;;;;;;;15.75;14.75;;;;;14.46;100.00;101378.41;5055637;28;45514;-69
2022/09/23 06:00:55;;;;;;;;;21.25;17.00;;;;;14.51;100.00;101381.13;5054641;28;46048;-69
2022/09/23 06:03:21;;;;;;;;;14.25;12.75;;;;;14.49;100.00;101378.47;5056256;28;45473;-69
2022/09/23 06:05:47;;;;;;;;;20.75;15.25;;;;;14.53;100.00;101377.56;5054286;28;45407;-69
2022/09/23 06:08:13;;;;;;;;;21.50;16.00;;;;;14.58;100.00;101383.78;5056886;28;45533;-70
2022/09/23 06:10:43;;;;;;;;;14.50;14.50;;;;;14.60;100.00;101382.06;5038703;28;46113;-69
2022/09/23 06:13:09;;;;;;;;;20.75;14.50;;;;;14.61;100.00;101375.84;5054876;28;45463;-69
2022/09/23 06:15:35;;;;;;;;;14.75;10.25;;;;;14.63;100.00;101360.78;5053954;28;45505;-69
2022/09/23 06:18:01;;;;;;;;;16.75;14.25;;;;;14.71;100.00;101362.59;5056776;28;45514;-69
2022/09/23 06:20:27;;;;;;;;;13.00;10.50;;;;;14.73;100.00;101361.69;5048296;28;45601;-69
2022/09/23 06:22:53;;;;;;;;;14.75;12.00;;;;;14.77;100.00;101365.25;5037619;28;64741;-69
2022/09/23 06:25:21;;;;;;;;;13.75;13.75;;;;;14.79;100.00;101363.47;5056717;28;45273;-70
2022/09/23 06:27:54;;;;;;;;;14.00;10.25;;;;;14.83;100.00;101365.28;5036311;28;45504;-70
2022/09/23 06:30:20;;;;;;;;;16.00;14.33;;;;;14.88;100.00;101377.69;5164426;22;46883;-68
2022/09/23 06:32:52;;;;;;;;;16.50;13.75;;;;;14.96;100.00;101385.66;5034299;28;45451;-69
2022/09/23 06:35:32;;;;;;;;;16.25;13.25;;;;;15.00;100.00;101378.59;5031641;28;45527;-69
2022/09/23 06:38:04;;;;;;;;;12.00;11.25;;;;;15.04;100.00;101378.59;5046654;28;45664;-69
2022/09/23 06:40:30;;;;;;;;;15.00;13.00;;;;;15.08;100.00;101382.16;5029995;28;46773;-68
2022/09/23 06:42:59;;;;;;;;;17.50;11.50;;;;;15.11;100.00;101385.69;5042996;28;45583;-68
2022/09/23 06:45:26;;;;;;;;;15.50;12.50;;;;;15.17;100.00;101391.00;5029943;28;45356;-67
2022/09/23 06:47:55;;;;;;;;;17.25;15.00;;;;;15.17;100.00;101380.38;5048559;28;45723;-68
2022/09/23 06:50:22;;;;;;;;;19.00;15.00;;;;;15.21;100.00;101373.28;5032798;28;46285;-67
2022/09/23 06:52:54;;;;;;;;;16.50;14.25;;;;;15.28;100.00;101385.72;5030869;28;45489;-67
2022/09/23 06:55:22;;;;;;;;;13.50;9.75;;;;;15.31;100.00;101388.38;5034447;28;45747;-67
2022/09/23 06:57:47;;;;;;;;;17.00;13.50;;;;;15.36;100.00;101372.41;5032457;28;45541;-68
2022/09/23 07:00:13;;;;;;;;;17.75;14.25;;;;;15.39;100.00;101373.31;5032379;28;68569;-69
2022/09/23 07:02:40;;;;;;;;;20.25;16.25;;;;;15.42;100.00;101370.63;5034167;28;45470;-69
2022/09/23 07:05:06;;;;;;;;;18.00;15.75;;;;;15.51;100.00;101382.19;5035815;28;45354;-67
2022/09/23 07:07:32;;;;;;;;;17.75;14.25;;;;;15.54;100.00;101385.72;5031989;28;45439;-68
2022/09/23 07:09:57;;;;;;;;;13.00;13.00;;;;;15.52;100.00;101374.19;5034684;28;45945;-68
2022/09/23 07:12:23;;;;;;;;;21.00;16.50;;;;;15.65;100.00;101380.41;5034996;28;61785;-67
2022/09/23 07:14:48;;;;;;;;;19.00;14.00;;;;;15.71;100.00;101370.66;5034884;28;45266;-68
2022/09/23 07:17:13;;;;;;;;;20.50;16.00;;;;;15.77;100.00;101372.44;5032238;28;56512;-67
2022/09/23 07:19:39;;;;;;;;;19.75;17.50;;;;;15.86;100.00;101372.38;5027257;28;46671;-67
2022/09/23 07:22:04;;;;;;;;;17.50;15.75;;;;;15.92;100.00;101374.16;5029327;28;64068;-68
2022/09/23 07:24:29;;;;;;;;;19.00;17.00;;;;;15.99;100.00;101375.94;5029708;28;60840;-68
2022/09/23 07:26:55;;;;;;;;;16.75;16.50;;;;;16.07;100.00;101381.22;5029976;28;55849;-68
2022/09/23 07:29:20;;;;;;;;;19.50;16.00;;;;;16.12;100.00;101372.31;5034115;28;46359;-69
2022/09/23 07:31:46;;;;;;;;;19.50;18.50;;;;;16.18;100.00;101374.06;5025677;28;45509;-69
2022/09/23 07:34:11;;;;;;;;;24.25;17.75;;;;;16.23;100.00;101370.50;5033376;28;55481;-67
2022/09/23 07:36:39;;;;;;;;;25.00;20.00;;;;;16.26;100.00;101372.28;5048239;28;57721;-69
2022/09/23 07:39:05;;;;;;;;;19.00;17.75;;;;;16.33;100.00;101371.34;5047138;28;47270;-69
2022/09/23 07:41:31;;;;;;;;;18.50;17.50;;;;;16.39;100.00;101383.78;5048251;28;45549;-68
2022/09/23 07:43:59;;;;;;;;;22.25;18.50;;;;;16.43;100.00;101377.53;5033516;28;45583;-67
2022/09/23 07:46:26;;;;;;;;;22.50;19.00;;;;;16.46;100.00;101388.22;5032096;28;46265;-67
2022/09/23 07:48:52;;;;;;;;;26.25;22.25;;;;;16.54;100.00;101390.81;5034423;28;46492;-68
2022/09/23 07:51:28;;;;;;;;;24.75;20.75;;;;;16.59;100.00;101395.25;5034458;28;45211;-68
2022/09/23 07:53:55;;;;;;;;;21.75;21.00;;;;;16.61;100.00;101385.44;5048085;28;45436;-68
2022/09/23 07:56:23;;;;;;;;;27.00;22.25;;;;;16.70;100.00;101398.75;5033585;28;45632;-69
2022/09/23 07:58:58;;;;;;;;;22.50;20.75;;;;;16.74;100.00;101399.66;5046596;28;45974;-68
2022/09/23 08:01:25;;;;;;;;;18.75;18.75;;;;;16.80;100.00;101401.41;5030380;28;45436;-68
2022/09/23 08:03:50;;;;;;;;;24.75;19.75;;;;;16.88;100.00;101410.22;5033596;28;45507;-68
2022/09/23 08:06:16;;;;;;;;;23.00;20.25;;;;;16.94;100.00;101407.56;5032364;28;51240;-68
2022/09/23 08:08:42;;;;;;;;;18.25;17.25;;;;;17.00;100.00;101407.50;5033113;28;46224;-69
2022/09/23 08:11:09;;;;;;;;;23.75;19.00;;;;;17.06;100.00;101414.59;5034023;28;45445;-68
2022/09/23 08:13:35;;;;;;;;;19.50;18.50;;;;;17.15;100.00;101425.19;5033927;28;45324;-68
2022/09/23 08:16:01;;;;;;;;;21.50;17.75;;;;;17.19;100.00;101416.25;5032664;28;45620;-69
2022/09/23 08:18:26;;;;;;;;;24.00;23.25;;;;;17.23;100.00;101404.69;5033492;28;46850;-68
2022/09/23 08:20:52;;;;;;;;;26.50;20.50;;;;;17.32;100.00;101415.28;5031011;28;45628;-68
2022/09/23 08:23:18;;;;;;;;;16.00;14.00;;;;;17.38;100.00;101411.69;5030698;28;45498;-68
2022/09/23 08:25:46;;;;;;;;;22.50;18.50;;;;;17.40;100.00;101401.88;5029122;28;45359;-68
2022/09/23 08:28:15;;;;;;;;;26.50;21.25;;;;;17.47;100.00;101409.84;5027290;28;45782;-70
2022/09/23 08:30:42;;;;;;;;;27.00;21.50;;;;;17.54;100.00;101413.34;5031100;28;45351;-67
2022/09/23 08:33:08;;;;;;;;;35.00;27.75;;;;;17.58;100.00;101411.50;5032107;28;45262;-66
2022/09/23 08:35:34;;;;;;;;;27.25;22.25;;;;;17.66;100.00;101405.22;5032264;28;45497;-68
2022/09/23 08:37:59;;;;;;;;;28.25;25.00;;;;;17.76;100.00;101408.72;5033670;28;47093;-68
2022/09/23 08:40:25;;;;;;;;;19.75;19.25;;;;;17.82;100.00;101413.13;5029872;28;46686;-68
2022/09/23 08:42:50;;;;;;;;;25.50;23.00;;;;;17.90;100.00;101416.63;5030029;28;45575;-67
2022/09/23 08:45:24;;;;;;;;;28.50;21.00;;;;;17.98;100.00;101414.72;5030200;28;45634;-67
2022/09/23 08:48:06;;;;;;;;;24.75;22.75;;;;;18.02;100.00;101409.34;5042313;28;45553;-68
2022/09/23 08:50:41;;;;;;;;;25.00;21.25;;;;;18.13;100.00;101411.91;5028935;28;45561;-68
2022/09/23 08:53:19;;;;;;;;;25.33;23.67;;;;;18.16;100.00;101403.84;5048199;28;45693;-67
2022/09/23 08:55:50;;;;;;;;;23.75;22.00;;;;;18.23;100.00;101413.56;5031405;28;45743;-67
2022/09/23 08:58:46;;;;;;;;;28.25;28.00;;;;;18.28;100.00;101425.09;5040059;28;46496;-69
2022/09/23 09:01:30;;;;;;;;;22.33;19.00;;;;;18.29;100.00;101405.47;5031016;28;45530;-67
2022/09/23 09:03:59;;;;;;;;;22.33;18.00;;;;;18.35;100.00;101409.88;5034260;28;45641;-68
2022/09/23 09:06:43;;;;;;;;;17.33;16.00;;;;;18.36;100.00;101402.72;5045171;28;45529;-67
2022/09/23 09:09:20;;;;;;;;;16.00;15.00;;;;;18.38;100.00;101399.16;5031643;28;46042;-68
2022/09/23 09:11:48;;;;;;;;;19.67;18.67;;;;;18.40;100.00;101396.44;5033256;28;45419;-68
2022/09/23 09:14:31;;;;;;;;;15.00;14.00;;;;;18.47;100.00;101408.81;5027652;28;45362;-68
2022/09/23 09:17:01;;;;;;;;;18.00;12.33;;;;;18.47;100.00;101398.13;5030212;28;45559;-67
2022/09/23 09:19:56;;;;;;;;;18.00;14.00;;;;;18.54;100.00;101398.06;5045668;28;46426;-67
2022/09/23 09:22:33;;;;;;;;;12.00;12.00;;;;;18.56;99.85;101400.69;5005678;28;45855;-68
2022/09/23 09:25:04;;;;;;;;;10.67;10.67;;;;;18.60;99.69;101391.75;5028754;28;45435;-67
2022/09/23 09:27:29;;;;;;;;;8.67;7.00;;;;;18.68;97.91;101399.69;5033319;28;45213;-68
2022/09/23 09:29:56;;;;;;;;;9.00;7.67;;;;;18.73;98.28;101390.69;5047600;28;46551;-68
2022/09/23 09:32:42;;;;;;;;;11.67;10.00;;;;;18.81;97.83;101385.25;5028917;28;45685;-68
2022/09/23 09:35:21;;;;;;;;;10.00;8.33;;;;;18.89;96.30;101382.44;5029942;28;45452;-67
2022/09/23 09:37:46;;;;;;;;;10.00;9.00;;;;;18.94;94.39;101385.94;5026319;28;45553;-70
2022/09/23 09:40:13;;;;;;;;;12.33;8.33;;;;;18.95;95.41;101385.03;5047850;28;45960;-70
2022/09/23 09:42:40;;;;;;;;;10.33;8.00;;;;;18.97;92.84;101383.25;5034675;28;45480;-68
2022/09/23 09:45:26;;;;;;;;;10.33;10.00;;;;;18.99;91.94;101378.72;5033078;28;46685;-68
2022/09/23 09:48:01;;;;;;;;;10.67;10.00;;;;;19.02;92.62;101381.38;5034353;28;45327;-68
2022/09/23 09:50:48;;;;;;;;;7.67;7.67;;;;;19.06;92.32;101385.75;5033099;28;45655;-69
2022/09/23 09:53:25;;;;;;;;;10.00;10.00;;;;;19.05;91.69;101382.19;5035029;28;45391;-68
2022/09/23 09:56:00;;;;;;;;;10.33;9.00;;;;;19.12;91.50;101382.97;5031951;28;45413;-68
2022/09/23 09:58:28;;;;;;;;;9.00;9.00;;;;;19.13;90.84;101379.41;5033323;28;46699;-69
2022/09/23 10:00:55;;;;;;;;;12.00;8.67;;;;;19.16;91.14;101381.16;5029130;28;45919;-69
2022/09/23 10:03:20;;;;;;;;;11.67;8.67;;;;;19.14;88.75;101383.84;5034494;28;45499;-68
2022/09/23 10:05:51;;;;;;;;;6.67;6.33;;;;;19.15;88.30;101388.28;5035707;28;46944;-68
2022/09/23 10:08:33;;;;;;;;;10.00;7.67;;;;;19.16;87.69;101382.03;5034397;28;45352;-68
2022/09/23 10:11:02;;;;;;;;;7.67;7.67;;;;;19.21;87.75;101377.50;5033658;28;45821;-68
2022/09/23 10:13:29;;;;;;;;;7.33;7.00;;;;;19.23;88.00;101381.03;5035484;28;45308;-68
2022/09/23 10:15:55;;;;;;;;;6.00;6.00;;;;;19.27;87.76;101366.66;5033682;28;47600;-70
2022/09/23 10:18:37;;;;;;;;;6.00;6.00;;;;;19.38;87.75;101371.84;5033064;28;45597;-70
2022/09/23 10:21:13;;;;;;;;;9.67;9.33;;;;;19.43;87.63;101369.97;5031431;28;47267;-69
2022/09/23 10:23:41;;;;;;;;;12.67;9.00;;;;;19.49;87.49;101371.66;5045899;28;46157;-69
2022/09/23 10:26:07;;;;;;;;;9.33;9.33;;;;;19.54;87.38;101354.59;5051358;28;45472;-69
2022/09/23 10:28:45;;;;;;;;;9.67;7.67;;;;;19.62;87.39;101360.75;5027280;28;45332;-68
2022/09/23 10:31:23;;;;;;;;;10.67;9.00;;;;;19.68;86.72;101348.16;5032014;28;46173;-69
2022/09/23 10:33:53;;;;;;;;;12.00;8.67;;;;;19.78;85.87;101358.69;5045562;28;45697;-70
2022/09/23 10:36:20;;;;;;;;;7.67;7.67;;;;;19.89;86.10;101359.38;5033394;28;45728;-69
2022/09/23 10:38:49;;;;;;;;;12.33;9.67;;;;;20.00;85.45;101353.78;5033743;28;45525;-69
2022/09/23 10:47:56;;;;;;;;;9.67;7.33;;;;;20.25;85.21;101339.91;5033227;28;45525;-69
2022/09/23 10:50:33;;;;;;;;;8.33;7.00;;;;;20.40;83.87;101353.88;5050272;28;45533;-72
2022/09/23 10:53:05;;;;;;;;;10.67;7.00;;;;;20.45;83.98;101343.03;5034412;28;45471;-71
2022/09/23 10:55:51;;;;;;;;;7.00;5.67;;;;;20.51;83.42;101337.59;5034430;28;45553;-71
2022/09/23 10:58:31;;;;;;;;;8.67;7.00;;;;;20.60;82.01;101345.41;5031674;28;45455;-70
2022/09/23 11:01:24;;;;;;;;;9.00;7.67;;;;;20.65;81.11;101342.63;5044790;28;45300;-72
2022/09/23 11:04:06;;;;;;;;;9.33;6.00;;;;;20.71;80.71;101328.19;5029810;28;46746;-70
2022/09/23 11:06:38;;;;;;;;;7.33;6.00;;;;;20.79;79.24;101328.91;5030393;28;46954;-71
2022/09/23 11:09:15;;;;;;;;;9.00;8.33;;;;;20.82;77.10;101332.38;5034112;28;45550;-70
2022/09/23 11:12:07;;;;;;;;;12.67;11.00;;;;;20.77;77.45;101326.22;5034062;28;45453;-71
2022/09/23 11:15:06;;;;;;;;;7.67;6.67;;;;;20.76;78.25;101324.47;5015370;28;46134;-70
2022/09/23 11:18:22;;;;;;;;;5.67;5.67;;;;;20.81;78.81;101322.56;5030321;28;45389;-71
2022/09/23 11:21:01;;;;;;;;;7.00;6.00;;;;;20.80;80.78;101315.44;5029878;28;45374;-68
2022/09/23 11:23:45;;;;;;;;;8.67;7.67;;;;;20.84;78.46;101306.41;5033694;28;45396;-70
2022/09/23 11:26:16;;;;;;;;;10.00;6.33;;;;;20.92;78.96;101311.56;5030540;28;45859;-70
2022/09/23 11:28:42;;;;;;;;;8.00;5.33;;;;;20.99;80.98;101298.91;5033408;28;45432;-70
2022/09/23 11:31:46;;;;;;;;;9.00;7.00;;;;;21.09;80.17;101304.00;5030121;28;46124;-70
2022/09/23 11:34:33;;;;;;;;;7.00;6.00;;;;;21.21;81.00;101302.81;5034601;28;45715;-70